sensor_id;sensor_type;location;lat;lon;timestamp;P1;durP1;ratioP1;P2;durP2;ratioP2
15480;SDS011;7842;50.904;6.670;2022-09-09T00:04:35;3.40;;;1.40;;
15480;SDS011;7842;50.904;6.670;2022-09-09T00:09:29;2.90;;;1.50;;
15480;SDS011;7842;50.904;6.670;2022-09-09T00:14:54;4.13;;;1.42;;
15480;SDS011;7842;50.904;6.670;2022-09-09T00:20:02;3.07;;;1.53;;
15480;SDS011;7842;50.904;6.670;2022-09-09T00:22:30;3.05;;;1.58;;
15480;SDS011;7842;50.904;6.670;2022-09-09T00:25:00;3.80;;;1.63;;
15480;SDS011;7842;50.904;6.670;2022-09-09T00:29:58;4.80;;;1.87;;
15480;SDS011;7842;50.904;6.670;2022-09-09T00:32:28;4.18;;;1.60;;
15480;SDS011;7842;50.904;6.670;2022-09-09T00:34:56;2.72;;;1.40;;
15480;SDS011;7842;50.904;6.670;2022-09-09T00:37:24;2.13;;;1.45;;
15480;SDS011;7842;50.904;6.670;2022-09-09T00:39:51;2.15;;;1.40;;
15480;SDS011;7842;50.904;6.670;2022-09-09T00:45:16;1.80;;;1.48;;
15480;SDS011;7842;50.904;6.670;2022-09-09T00:47:51;2.40;;;1.45;;
15480;SDS011;7842;50.904;6.670;2022-09-09T00:55:59;2.10;;;1.40;;
15480;SDS011;7842;50.904;6.670;2022-09-09T00:58:27;2.00;;;1.40;;
15480;SDS011;7842;50.904;6.670;2022-09-09T01:03:49;2.33;;;1.20;;
15480;SDS011;7842;50.904;6.670;2022-09-09T01:06:29;2.55;;;1.13;;
15480;SDS011;7842;50.904;6.670;2022-09-09T01:11:26;1.60;;;1.00;;
15480;SDS011;7842;50.904;6.670;2022-09-09T01:13:58;2.17;;;0.90;;
15480;SDS011;7842;50.904;6.670;2022-09-09T01:16:27;2.50;;;1.10;;
15480;SDS011;7842;50.904;6.670;2022-09-09T01:18:54;3.05;;;0.98;;
15480;SDS011;7842;50.904;6.670;2022-09-09T01:21:25;2.05;;;0.90;;
15480;SDS011;7842;50.904;6.670;2022-09-09T01:24:08;1.87;;;0.93;;
15480;SDS011;7842;50.904;6.670;2022-09-09T01:26:42;1.63;;;0.93;;
15480;SDS011;7842;50.904;6.670;2022-09-09T01:29:09;2.08;;;1.02;;
15480;SDS011;7842;50.904;6.670;2022-09-09T01:31:40;1.92;;;1.20;;
15480;SDS011;7842;50.904;6.670;2022-09-09T01:34:11;1.88;;;1.00;;
15480;SDS011;7842;50.904;6.670;2022-09-09T01:36:42;1.73;;;1.00;;
15480;SDS011;7842;50.904;6.670;2022-09-09T01:39:09;1.55;;;1.00;;
15480;SDS011;7842;50.904;6.670;2022-09-09T01:41:36;2.38;;;1.10;;
15480;SDS011;7842;50.904;6.670;2022-09-09T01:44:02;1.65;;;1.13;;
15480;SDS011;7842;50.904;6.670;2022-09-09T01:46:29;2.00;;;1.17;;
15480;SDS011;7842;50.904;6.670;2022-09-09T01:48:55;2.30;;;1.00;;
15480;SDS011;7842;50.904;6.670;2022-09-09T01:51:22;2.28;;;1.00;;
15480;SDS011;7842;50.904;6.670;2022-09-09T01:53:49;2.42;;;1.10;;
15480;SDS011;7842;50.904;6.670;2022-09-09T01:56:39;1.88;;;1.10;;
15480;SDS011;7842;50.904;6.670;2022-09-09T01:59:07;1.95;;;1.10;;
15480;SDS011;7842;50.904;6.670;2022-09-09T02:04:02;1.35;;;1.00;;
15480;SDS011;7842;50.904;6.670;2022-09-09T02:08:55;1.92;;;1.05;;
15480;SDS011;7842;50.904;6.670;2022-09-09T02:11:23;1.55;;;1.08;;
15480;SDS011;7842;50.904;6.670;2022-09-09T02:13:51;2.75;;;1.10;;
15480;SDS011;7842;50.904;6.670;2022-09-09T02:16:22;2.25;;;1.00;;
15480;SDS011;7842;50.904;6.670;2022-09-09T02:18:57;2.90;;;1.40;;
15480;SDS011;7842;50.904;6.670;2022-09-09T02:21:27;1.67;;;1.00;;
15480;SDS011;7842;50.904;6.670;2022-09-09T02:23:54;2.25;;;1.30;;
15480;SDS011;7842;50.904;6.670;2022-09-09T02:26:22;2.88;;;1.27;;
15480;SDS011;7842;50.904;6.670;2022-09-09T02:28:50;2.20;;;1.20;;
15480;SDS011;7842;50.904;6.670;2022-09-09T02:31:17;1.50;;;1.10;;
15480;SDS011;7842;50.904;6.670;2022-09-09T02:33:46;3.00;;;1.40;;
15480;SDS011;7842;50.904;6.670;2022-09-09T02:36:14;3.17;;;1.30;;
15480;SDS011;7842;50.904;6.670;2022-09-09T02:38:42;2.60;;;1.30;;
15480;SDS011;7842;50.904;6.670;2022-09-09T02:41:11;2.22;;;1.30;;
15480;SDS011;7842;50.904;6.670;2022-09-09T02:43:37;1.80;;;1.20;;
15480;SDS011;7842;50.904;6.670;2022-09-09T02:46:17;3.47;;;1.52;;
15480;SDS011;7842;50.904;6.670;2022-09-09T02:48:59;2.65;;;1.10;;
15480;SDS011;7842;50.904;6.670;2022-09-09T02:51:32;1.80;;;1.25;;
15480;SDS011;7842;50.904;6.670;2022-09-09T02:54:42;2.00;;;1.33;;
15480;SDS011;7842;50.904;6.670;2022-09-09T02:56:50;1.35;;;1.15;;
15480;SDS011;7842;50.904;6.670;2022-09-09T02:59:18;2.95;;;1.35;;
15480;SDS011;7842;50.904;6.670;2022-09-09T03:01:44;2.28;;;1.60;;
15480;SDS011;7842;50.904;6.670;2022-09-09T03:04:10;2.50;;;1.27;;
15480;SDS011;7842;50.904;6.670;2022-09-09T03:06:36;2.42;;;1.45;;
15480;SDS011;7842;50.904;6.670;2022-09-09T03:09:02;3.20;;;1.42;;
15480;SDS011;7842;50.904;6.670;2022-09-09T03:11:28;2.35;;;1.40;;
15480;SDS011;7842;50.904;6.670;2022-09-09T03:13:54;3.50;;;1.80;;
15480;SDS011;7842;50.904;6.670;2022-09-09T03:16:23;3.47;;;1.73;;
15480;SDS011;7842;50.904;6.670;2022-09-09T03:18:49;2.73;;;1.50;;
15480;SDS011;7842;50.904;6.670;2022-09-09T03:21:16;3.38;;;1.60;;
15480;SDS011;7842;50.904;6.670;2022-09-09T03:23:42;3.75;;;1.75;;
15480;SDS011;7842;50.904;6.670;2022-09-09T03:26:09;3.92;;;1.80;;
15480;SDS011;7842;50.904;6.670;2022-09-09T03:28:35;4.25;;;1.70;;
15480;SDS011;7842;50.904;6.670;2022-09-09T03:31:03;2.80;;;1.50;;
15480;SDS011;7842;50.904;6.670;2022-09-09T03:33:29;3.20;;;1.63;;
15480;SDS011;7842;50.904;6.670;2022-09-09T03:35:56;2.58;;;1.65;;
15480;SDS011;7842;50.904;6.670;2022-09-09T03:38:25;4.40;;;1.88;;
15480;SDS011;7842;50.904;6.670;2022-09-09T03:40:52;3.35;;;1.80;;
15480;SDS011;7842;50.904;6.670;2022-09-09T03:43:22;3.22;;;1.58;;
15480;SDS011;7842;50.904;6.670;2022-09-09T03:45:48;6.78;;;1.95;;
15480;SDS011;7842;50.904;6.670;2022-09-09T03:48:15;3.65;;;1.73;;
15480;SDS011;7842;50.904;6.670;2022-09-09T03:50:47;4.53;;;1.98;;
15480;SDS011;7842;50.904;6.670;2022-09-09T03:53:14;4.53;;;2.03;;
15480;SDS011;7842;50.904;6.670;2022-09-09T03:55:43;4.63;;;2.20;;
15480;SDS011;7842;50.904;6.670;2022-09-09T03:58:10;7.45;;;2.10;;
15480;SDS011;7842;50.904;6.670;2022-09-09T04:00:36;4.10;;;2.03;;
15480;SDS011;7842;50.904;6.670;2022-09-09T04:03:05;4.75;;;2.05;;
15480;SDS011;7842;50.904;6.670;2022-09-09T04:05:31;4.43;;;1.90;;
15480;SDS011;7842;50.904;6.670;2022-09-09T04:07:58;4.47;;;1.70;;
15480;SDS011;7842;50.904;6.670;2022-09-09T04:10:24;3.00;;;1.70;;
15480;SDS011;7842;50.904;6.670;2022-09-09T04:12:51;4.47;;;1.60;;
15480;SDS011;7842;50.904;6.670;2022-09-09T04:15:17;4.13;;;1.60;;
15480;SDS011;7842;50.904;6.670;2022-09-09T04:17:44;3.80;;;1.67;;
15480;SDS011;7842;50.904;6.670;2022-09-09T04:20:10;3.97;;;1.65;;
15480;SDS011;7842;50.904;6.670;2022-09-09T04:22:37;4.20;;;2.00;;
15480;SDS011;7842;50.904;6.670;2022-09-09T04:25:04;5.72;;;1.85;;
15480;SDS011;7842;50.904;6.670;2022-09-09T04:27:30;5.50;;;1.80;;
15480;SDS011;7842;50.904;6.670;2022-09-09T04:29:56;4.00;;;1.55;;
15480;SDS011;7842;50.904;6.670;2022-09-09T04:32:23;5.63;;;1.70;;
15480;SDS011;7842;50.904;6.670;2022-09-09T04:34:52;2.63;;;1.38;;
15480;SDS011;7842;50.904;6.670;2022-09-09T04:37:18;5.88;;;1.77;;
15480;SDS011;7842;50.904;6.670;2022-09-09T04:39:44;4.18;;;1.77;;
15480;SDS011;7842;50.904;6.670;2022-09-09T04:42:10;5.20;;;1.80;;
15480;SDS011;7842;50.904;6.670;2022-09-09T04:44:37;3.75;;;1.77;;
15480;SDS011;7842;50.904;6.670;2022-09-09T04:47:04;3.55;;;1.73;;
15480;SDS011;7842;50.904;6.670;2022-09-09T04:49:30;3.30;;;1.70;;
15480;SDS011;7842;50.904;6.670;2022-09-09T04:51:56;5.63;;;1.70;;
15480;SDS011;7842;50.904;6.670;2022-09-09T04:54:22;5.80;;;1.90;;
15480;SDS011;7842;50.904;6.670;2022-09-09T04:56:49;5.65;;;1.70;;
15480;SDS011;7842;50.904;6.670;2022-09-09T04:59:16;4.18;;;1.55;;
15480;SDS011;7842;50.904;6.670;2022-09-09T05:01:42;5.88;;;1.77;;
15480;SDS011;7842;50.904;6.670;2022-09-09T05:04:07;3.17;;;1.50;;
15480;SDS011;7842;50.904;6.670;2022-09-09T05:06:33;5.40;;;1.80;;
15480;SDS011;7842;50.904;6.670;2022-09-09T05:09:01;3.87;;;1.70;;
15480;SDS011;7842;50.904;6.670;2022-09-09T05:11:28;3.03;;;1.50;;
15480;SDS011;7842;50.904;6.670;2022-09-09T05:13:54;3.58;;;1.60;;
15480;SDS011;7842;50.904;6.670;2022-09-09T05:16:23;5.57;;;1.90;;
15480;SDS011;7842;50.904;6.670;2022-09-09T05:18:50;4.93;;;1.70;;
15480;SDS011;7842;50.904;6.670;2022-09-09T05:21:16;4.07;;;1.63;;
15480;SDS011;7842;50.904;6.670;2022-09-09T05:23:43;4.13;;;1.67;;
15480;SDS011;7842;50.904;6.670;2022-09-09T05:26:11;3.13;;;1.45;;
15480;SDS011;7842;50.904;6.670;2022-09-09T05:28:38;4.30;;;1.55;;
15480;SDS011;7842;50.904;6.670;2022-09-09T05:31:05;5.38;;;1.90;;
15480;SDS011;7842;50.904;6.670;2022-09-09T05:33:33;3.72;;;1.70;;
15480;SDS011;7842;50.904;6.670;2022-09-09T05:36:03;3.45;;;1.50;;
15480;SDS011;7842;50.904;6.670;2022-09-09T05:38:30;4.90;;;1.65;;
15480;SDS011;7842;50.904;6.670;2022-09-09T05:40:57;3.92;;;1.50;;
15480;SDS011;7842;50.904;6.670;2022-09-09T05:43:24;3.78;;;1.40;;
15480;SDS011;7842;50.904;6.670;2022-09-09T05:46:06;3.13;;;1.17;;
15480;SDS011;7842;50.904;6.670;2022-09-09T05:48:37;3.25;;;1.45;;
15480;SDS011;7842;50.904;6.670;2022-09-09T05:51:04;3.78;;;1.40;;
15480;SDS011;7842;50.904;6.670;2022-09-09T05:53:31;4.90;;;1.50;;
15480;SDS011;7842;50.904;6.670;2022-09-09T05:55:59;2.55;;;1.42;;
15480;SDS011;7842;50.904;6.670;2022-09-09T05:58:26;3.63;;;1.55;;
15480;SDS011;7842;50.904;6.670;2022-09-09T06:00:52;2.28;;;1.30;;
15480;SDS011;7842;50.904;6.670;2022-09-09T06:03:19;4.10;;;1.45;;
15480;SDS011;7842;50.904;6.670;2022-09-09T06:05:56;3.72;;;1.40;;
15480;SDS011;7842;50.904;6.670;2022-09-09T06:08:22;3.97;;;1.30;;
15480;SDS011;7842;50.904;6.670;2022-09-09T06:10:48;2.90;;;1.10;;
15480;SDS011;7842;50.904;6.670;2022-09-09T06:13:14;2.93;;;1.47;;
15480;SDS011;7842;50.904;6.670;2022-09-09T06:15:48;2.80;;;1.37;;
15480;SDS011;7842;50.904;6.670;2022-09-09T06:18:14;3.25;;;1.30;;
15480;SDS011;7842;50.904;6.670;2022-09-09T06:20:43;3.15;;;1.40;;
15480;SDS011;7842;50.904;6.670;2022-09-09T06:23:09;3.53;;;1.50;;
15480;SDS011;7842;50.904;6.670;2022-09-09T06:25:35;3.70;;;1.63;;
15480;SDS011;7842;50.904;6.670;2022-09-09T06:28:03;3.07;;;1.37;;
15480;SDS011;7842;50.904;6.670;2022-09-09T06:30:29;3.80;;;1.67;;
15480;SDS011;7842;50.904;6.670;2022-09-09T06:32:55;2.22;;;1.20;;
15480;SDS011;7842;50.904;6.670;2022-09-09T06:35:22;4.10;;;1.50;;
15480;SDS011;7842;50.904;6.670;2022-09-09T06:37:48;3.60;;;1.40;;
15480;SDS011;7842;50.904;6.670;2022-09-09T06:40:14;2.20;;;1.20;;
15480;SDS011;7842;50.904;6.670;2022-09-09T06:42:41;3.42;;;1.58;;
15480;SDS011;7842;50.904;6.670;2022-09-09T06:45:07;5.25;;;1.40;;
15480;SDS011;7842;50.904;6.670;2022-09-09T06:47:33;4.33;;;1.47;;
15480;SDS011;7842;50.904;6.670;2022-09-09T06:49:59;4.30;;;1.57;;
15480;SDS011;7842;50.904;6.670;2022-09-09T06:52:25;4.77;;;1.60;;
15480;SDS011;7842;50.904;6.670;2022-09-09T06:54:51;2.83;;;1.20;;
15480;SDS011;7842;50.904;6.670;2022-09-09T06:57:18;2.93;;;1.20;;
15480;SDS011;7842;50.904;6.670;2022-09-09T06:59:44;2.50;;;1.27;;
15480;SDS011;7842;50.904;6.670;2022-09-09T07:02:10;4.50;;;1.33;;
15480;SDS011;7842;50.904;6.670;2022-09-09T07:04:36;4.40;;;1.48;;
15480;SDS011;7842;50.904;6.670;2022-09-09T07:07:02;4.68;;;1.35;;
15480;SDS011;7842;50.904;6.670;2022-09-09T07:09:28;4.23;;;1.40;;
15480;SDS011;7842;50.904;6.670;2022-09-09T07:11:54;3.55;;;1.33;;
15480;SDS011;7842;50.904;6.670;2022-09-09T07:14:22;4.38;;;1.40;;
15480;SDS011;7842;50.904;6.670;2022-09-09T07:16:48;4.85;;;1.65;;
15480;SDS011;7842;50.904;6.670;2022-09-09T07:19:14;3.17;;;1.30;;
15480;SDS011;7842;50.904;6.670;2022-09-09T07:21:39;4.38;;;1.25;;
15480;SDS011;7842;50.904;6.670;2022-09-09T07:24:05;3.83;;;1.50;;
15480;SDS011;7842;50.904;6.670;2022-09-09T07:26:32;3.53;;;1.50;;
15480;SDS011;7842;50.904;6.670;2022-09-09T07:28:58;4.63;;;1.63;;
15480;SDS011;7842;50.904;6.670;2022-09-09T07:33:51;3.50;;;1.42;;
15480;SDS011;7842;50.904;6.670;2022-09-09T07:36:23;3.75;;;1.23;;
15480;SDS011;7842;50.904;6.670;2022-09-09T07:38:52;3.70;;;1.63;;
15480;SDS011;7842;50.904;6.670;2022-09-09T07:41:21;3.15;;;1.40;;
15480;SDS011;7842;50.904;6.670;2022-09-09T07:43:57;4.80;;;1.35;;
15480;SDS011;7842;50.904;6.670;2022-09-09T07:46:24;3.20;;;1.45;;
15480;SDS011;7842;50.904;6.670;2022-09-09T07:48:52;2.88;;;1.20;;
15480;SDS011;7842;50.904;6.670;2022-09-09T07:51:21;4.88;;;1.70;;
15480;SDS011;7842;50.904;6.670;2022-09-09T07:53:51;2.95;;;1.38;;
15480;SDS011;7842;50.904;6.670;2022-09-09T07:56:18;3.25;;;1.30;;
15480;SDS011;7842;50.904;6.670;2022-09-09T07:58:48;3.45;;;1.38;;
15480;SDS011;7842;50.904;6.670;2022-09-09T08:01:25;5.03;;;1.60;;
15480;SDS011;7842;50.904;6.670;2022-09-09T08:04:02;3.78;;;1.50;;
15480;SDS011;7842;50.904;6.670;2022-09-09T08:06:34;5.28;;;1.60;;
15480;SDS011;7842;50.904;6.670;2022-09-09T08:09:02;4.55;;;1.40;;
15480;SDS011;7842;50.904;6.670;2022-09-09T08:11:29;5.43;;;1.50;;
15480;SDS011;7842;50.904;6.670;2022-09-09T08:13:55;4.85;;;1.48;;
15480;SDS011;7842;50.904;6.670;2022-09-09T08:16:22;5.00;;;1.48;;
15480;SDS011;7842;50.904;6.670;2022-09-09T08:18:50;4.15;;;1.63;;
15480;SDS011;7842;50.904;6.670;2022-09-09T08:21:18;3.75;;;1.52;;
15480;SDS011;7842;50.904;6.670;2022-09-09T08:23:46;3.17;;;1.30;;
15480;SDS011;7842;50.904;6.670;2022-09-09T08:26:16;4.40;;;1.47;;
15480;SDS011;7842;50.904;6.670;2022-09-09T08:28:46;3.85;;;1.40;;
15480;SDS011;7842;50.904;6.670;2022-09-09T08:31:13;2.72;;;1.30;;
15480;SDS011;7842;50.904;6.670;2022-09-09T08:33:41;2.58;;;1.20;;
15480;SDS011;7842;50.904;6.670;2022-09-09T08:36:10;3.72;;;1.60;;
15480;SDS011;7842;50.904;6.670;2022-09-09T08:38:38;2.25;;;1.17;;
15480;SDS011;7842;50.904;6.670;2022-09-09T08:41:07;3.28;;;1.30;;
15480;SDS011;7842;50.904;6.670;2022-09-09T08:46:57;3.25;;;1.10;;
15480;SDS011;7842;50.904;6.670;2022-09-09T08:52:57;2.97;;;1.20;;
15480;SDS011;7842;50.904;6.670;2022-09-09T08:55:17;2.70;;;1.17;;
15480;SDS011;7842;50.904;6.670;2022-09-09T08:58:17;2.35;;;1.10;;
15480;SDS011;7842;50.904;6.670;2022-09-09T09:00:57;2.83;;;1.05;;
15480;SDS011;7842;50.904;6.670;2022-09-09T09:11:54;3.15;;;1.20;;
15480;SDS011;7842;50.904;6.670;2022-09-09T09:14:26;2.53;;;1.10;;
15480;SDS011;7842;50.904;6.670;2022-09-09T09:19:31;2.83;;;1.00;;
15480;SDS011;7842;50.904;6.670;2022-09-09T09:27:14;3.40;;;1.30;;
15480;SDS011;7842;50.904;6.670;2022-09-09T09:29:43;4.97;;;1.15;;
15480;SDS011;7842;50.904;6.670;2022-09-09T09:32:16;2.22;;;1.13;;
15480;SDS011;7842;50.904;6.670;2022-09-09T09:34:51;2.55;;;1.10;;
15480;SDS011;7842;50.904;6.670;2022-09-09T09:37:32;2.60;;;1.30;;
15480;SDS011;7842;50.904;6.670;2022-09-09T09:40:11;2.03;;;1.07;;
15480;SDS011;7842;50.904;6.670;2022-09-09T09:42:47;2.80;;;1.17;;
15480;SDS011;7842;50.904;6.670;2022-09-09T09:45:23;1.92;;;1.00;;
15480;SDS011;7842;50.904;6.670;2022-09-09T09:48:04;2.80;;;1.20;;
15480;SDS011;7842;50.904;6.670;2022-09-09T09:50:31;2.22;;;1.00;;
15480;SDS011;7842;50.904;6.670;2022-09-09T09:52:59;2.55;;;1.17;;
15480;SDS011;7842;50.904;6.670;2022-09-09T09:55:28;2.08;;;1.13;;
15480;SDS011;7842;50.904;6.670;2022-09-09T09:58:00;2.47;;;0.90;;
15480;SDS011;7842;50.904;6.670;2022-09-09T10:00:31;3.42;;;1.20;;
15480;SDS011;7842;50.904;6.670;2022-09-09T10:02:59;2.80;;;1.10;;
15480;SDS011;7842;50.904;6.670;2022-09-09T10:05:26;2.33;;;1.10;;
15480;SDS011;7842;50.904;6.670;2022-09-09T10:08:11;1.83;;;0.98;;
15480;SDS011;7842;50.904;6.670;2022-09-09T10:19:00;2.00;;;0.90;;
15480;SDS011;7842;50.904;6.670;2022-09-09T10:24:22;1.50;;;0.85;;
15480;SDS011;7842;50.904;6.670;2022-09-09T10:27:19;2.05;;;1.00;;
15480;SDS011;7842;50.904;6.670;2022-09-09T10:30:21;2.40;;;1.17;;
15480;SDS011;7842;50.904;6.670;2022-09-09T10:33:02;1.90;;;0.80;;
15480;SDS011;7842;50.904;6.670;2022-09-09T10:35:36;1.52;;;0.80;;
15480;SDS011;7842;50.904;6.670;2022-09-09T10:38:12;2.93;;;1.20;;
15480;SDS011;7842;50.904;6.670;2022-09-09T10:54:19;3.28;;;1.52;;
15480;SDS011;7842;50.904;6.670;2022-09-09T10:56:50;2.65;;;1.17;;
15480;SDS011;7842;50.904;6.670;2022-09-09T10:59:27;1.73;;;0.90;;
15480;SDS011;7842;50.904;6.670;2022-09-09T11:02:00;2.33;;;1.10;;
15480;SDS011;7842;50.904;6.670;2022-09-09T11:04:48;2.60;;;1.10;;
15480;SDS011;7842;50.904;6.670;2022-09-09T11:07:39;3.22;;;1.15;;
15480;SDS011;7842;50.904;6.670;2022-09-09T11:10:17;1.50;;;1.10;;
15480;SDS011;7842;50.904;6.670;2022-09-09T11:12:45;2.83;;;1.10;;
15480;SDS011;7842;50.904;6.670;2022-09-09T11:15:59;2.08;;;1.00;;
15480;SDS011;7842;50.904;6.670;2022-09-09T11:17:59;2.75;;;1.00;;
15480;SDS011;7842;50.904;6.670;2022-09-09T11:20:27;2.53;;;0.90;;
15480;SDS011;7842;50.904;6.670;2022-09-09T11:23:01;3.03;;;1.00;;
15480;SDS011;7842;50.904;6.670;2022-09-09T11:27:57;3.30;;;1.25;;
15480;SDS011;7842;50.904;6.670;2022-09-09T11:30:30;2.40;;;1.00;;
15480;SDS011;7842;50.904;6.670;2022-09-09T11:35:54;3.60;;;1.10;;
15480;SDS011;7842;50.904;6.670;2022-09-09T11:38:26;2.47;;;1.10;;
15480;SDS011;7842;50.904;6.670;2022-09-09T11:40:59;2.60;;;1.00;;
15480;SDS011;7842;50.904;6.670;2022-09-09T11:43:28;3.25;;;1.05;;
15480;SDS011;7842;50.904;6.670;2022-09-09T11:45:56;3.38;;;1.08;;
15480;SDS011;7842;50.904;6.670;2022-09-09T11:48:43;2.40;;;1.13;;
15480;SDS011;7842;50.904;6.670;2022-09-09T11:51:25;4.75;;;2.00;;
15480;SDS011;7842;50.904;6.670;2022-09-09T11:53:53;3.00;;;1.30;;
15480;SDS011;7842;50.904;6.670;2022-09-09T11:58:56;3.17;;;1.30;;
15480;SDS011;7842;50.904;6.670;2022-09-09T12:04:05;3.05;;;1.25;;
15480;SDS011;7842;50.904;6.670;2022-09-09T12:06:42;1.75;;;1.00;;
15480;SDS011;7842;50.904;6.670;2022-09-09T12:14:44;4.63;;;1.30;;
15480;SDS011;7842;50.904;6.670;2022-09-09T12:19:46;2.88;;;1.20;;
15480;SDS011;7842;50.904;6.670;2022-09-09T12:25:09;2.70;;;1.10;;
15480;SDS011;7842;50.904;6.670;2022-09-09T12:28:01;2.22;;;1.00;;
15480;SDS011;7842;50.904;6.670;2022-09-09T12:30:31;2.88;;;1.10;;
15480;SDS011;7842;50.904;6.670;2022-09-09T12:33:17;1.67;;;0.85;;
15480;SDS011;7842;50.904;6.670;2022-09-09T12:35:44;1.38;;;0.90;;
15480;SDS011;7842;50.904;6.670;2022-09-09T12:38:13;2.58;;;1.00;;
15480;SDS011;7842;50.904;6.670;2022-09-09T12:40:40;3.00;;;1.00;;
15480;SDS011;7842;50.904;6.670;2022-09-09T12:43:16;2.55;;;1.00;;
15480;SDS011;7842;50.904;6.670;2022-09-09T12:45:43;2.17;;;1.10;;
15480;SDS011;7842;50.904;6.670;2022-09-09T12:48:10;1.77;;;0.90;;
15480;SDS011;7842;50.904;6.670;2022-09-09T12:50:47;2.95;;;1.25;;
15480;SDS011;7842;50.904;6.670;2022-09-09T12:55:51;2.42;;;1.00;;
15480;SDS011;7842;50.904;6.670;2022-09-09T12:58:17;2.03;;;0.90;;
15480;SDS011;7842;50.904;6.670;2022-09-09T13:00:51;1.80;;;1.00;;
15480;SDS011;7842;50.904;6.670;2022-09-09T13:03:18;2.58;;;0.90;;
15480;SDS011;7842;50.904;6.670;2022-09-09T13:05:45;2.55;;;1.00;;
15480;SDS011;7842;50.904;6.670;2022-09-09T13:08:12;2.22;;;0.93;;
15480;SDS011;7842;50.904;6.670;2022-09-09T13:10:40;1.55;;;0.90;;
15480;SDS011;7842;50.904;6.670;2022-09-09T13:13:13;3.17;;;1.20;;
15480;SDS011;7842;50.904;6.670;2022-09-09T13:15:47;2.95;;;1.15;;
15480;SDS011;7842;50.904;6.670;2022-09-09T13:18:13;3.40;;;1.10;;
15480;SDS011;7842;50.904;6.670;2022-09-09T13:20:45;2.70;;;1.05;;
15480;SDS011;7842;50.904;6.670;2022-09-09T13:23:11;2.55;;;1.15;;
15480;SDS011;7842;50.904;6.670;2022-09-09T13:25:37;1.48;;;0.80;;
15480;SDS011;7842;50.904;6.670;2022-09-09T13:28:04;2.70;;;1.10;;
15480;SDS011;7842;50.904;6.670;2022-09-09T13:35:49;3.00;;;1.00;;
15480;SDS011;7842;50.904;6.670;2022-09-09T13:38:16;2.65;;;1.00;;
15480;SDS011;7842;50.904;6.670;2022-09-09T13:40:58;2.60;;;0.80;;
15480;SDS011;7842;50.904;6.670;2022-09-09T13:43:28;2.60;;;1.17;;
15480;SDS011;7842;50.904;6.670;2022-09-09T13:45:56;1.90;;;0.95;;
15480;SDS011;7842;50.904;6.670;2022-09-09T13:48:23;1.90;;;1.00;;
15480;SDS011;7842;50.904;6.670;2022-09-09T13:50:55;2.83;;;0.90;;
15480;SDS011;7842;50.904;6.670;2022-09-09T13:53:22;3.50;;;1.20;;
15480;SDS011;7842;50.904;6.670;2022-09-09T13:55:48;1.60;;;0.90;;
15480;SDS011;7842;50.904;6.670;2022-09-09T13:58:14;2.33;;;1.10;;
15480;SDS011;7842;50.904;6.670;2022-09-09T14:00:44;2.00;;;1.00;;
15480;SDS011;7842;50.904;6.670;2022-09-09T14:03:11;1.85;;;1.05;;
15480;SDS011;7842;50.904;6.670;2022-09-09T14:05:37;2.67;;;1.00;;
15480;SDS011;7842;50.904;6.670;2022-09-09T14:08:04;3.72;;;1.40;;
15480;SDS011;7842;50.904;6.670;2022-09-09T14:10:30;3.30;;;1.63;;
15480;SDS011;7842;50.904;6.670;2022-09-09T14:12:56;5.35;;;1.58;;
15480;SDS011;7842;50.904;6.670;2022-09-09T14:15:22;3.40;;;1.30;;
15480;SDS011;7842;50.904;6.670;2022-09-09T14:17:48;3.37;;;1.40;;
15480;SDS011;7842;50.904;6.670;2022-09-09T14:20:14;4.35;;;1.50;;
15480;SDS011;7842;50.904;6.670;2022-09-09T14:22:42;2.42;;;1.40;;
15480;SDS011;7842;50.904;6.670;2022-09-09T14:25:09;1.67;;;1.17;;
15480;SDS011;7842;50.904;6.670;2022-09-09T14:27:36;2.30;;;1.33;;
15480;SDS011;7842;50.904;6.670;2022-09-09T14:30:04;1.40;;;1.00;;
15480;SDS011;7842;50.904;6.670;2022-09-09T14:32:30;2.50;;;1.55;;
15480;SDS011;7842;50.904;6.670;2022-09-09T14:34:56;2.17;;;1.20;;
15480;SDS011;7842;50.904;6.670;2022-09-09T14:37:22;2.13;;;1.10;;
15480;SDS011;7842;50.904;6.670;2022-09-09T14:39:49;1.95;;;1.17;;
15480;SDS011;7842;50.904;6.670;2022-09-09T14:42:15;3.23;;;0.93;;
15480;SDS011;7842;50.904;6.670;2022-09-09T14:44:41;1.75;;;1.00;;
15480;SDS011;7842;50.904;6.670;2022-09-09T14:47:07;2.08;;;1.00;;
15480;SDS011;7842;50.904;6.670;2022-09-09T14:49:34;2.15;;;1.00;;
15480;SDS011;7842;50.904;6.670;2022-09-09T14:52:00;1.95;;;0.90;;
15480;SDS011;7842;50.904;6.670;2022-09-09T14:54:27;2.38;;;1.02;;
15480;SDS011;7842;50.904;6.670;2022-09-09T14:56:53;1.80;;;1.00;;
15480;SDS011;7842;50.904;6.670;2022-09-09T14:59:19;2.17;;;1.10;;
15480;SDS011;7842;50.904;6.670;2022-09-09T15:01:45;1.40;;;1.00;;
15480;SDS011;7842;50.904;6.670;2022-09-09T15:04:11;1.35;;;0.90;;
15480;SDS011;7842;50.904;6.670;2022-09-09T15:06:39;1.47;;;1.10;;
15480;SDS011;7842;50.904;6.670;2022-09-09T15:09:07;2.33;;;1.20;;
15480;SDS011;7842;50.904;6.670;2022-09-09T15:11:35;2.00;;;1.10;;
15480;SDS011;7842;50.904;6.670;2022-09-09T15:14:03;2.28;;;1.10;;
15480;SDS011;7842;50.904;6.670;2022-09-09T15:16:29;1.90;;;1.17;;
15480;SDS011;7842;50.904;6.670;2022-09-09T15:18:57;1.65;;;0.95;;
15480;SDS011;7842;50.904;6.670;2022-09-09T15:21:24;2.58;;;1.13;;
15480;SDS011;7842;50.904;6.670;2022-09-09T15:23:50;2.30;;;1.00;;
15480;SDS011;7842;50.904;6.670;2022-09-09T15:26:16;2.85;;;1.27;;
15480;SDS011;7842;50.904;6.670;2022-09-09T15:28:43;1.70;;;1.20;;
15480;SDS011;7842;50.904;6.670;2022-09-09T15:33:48;3.50;;;1.20;;
15480;SDS011;7842;50.904;6.670;2022-09-09T15:36:15;2.20;;;1.40;;
15480;SDS011;7842;50.904;6.670;2022-09-09T15:38:41;2.47;;;1.25;;
15480;SDS011;7842;50.904;6.670;2022-09-09T15:41:08;2.25;;;1.08;;
15480;SDS011;7842;50.904;6.670;2022-09-09T15:43:34;2.30;;;1.20;;
15480;SDS011;7842;50.904;6.670;2022-09-09T15:46:02;2.25;;;0.90;;
15480;SDS011;7842;50.904;6.670;2022-09-09T15:48:31;1.67;;;1.10;;
15480;SDS011;7842;50.904;6.670;2022-09-09T15:51:01;4.20;;;1.10;;
15480;SDS011;7842;50.904;6.670;2022-09-09T15:53:28;2.10;;;1.00;;
15480;SDS011;7842;50.904;6.670;2022-09-09T15:55:54;1.10;;;0.90;;
15480;SDS011;7842;50.904;6.670;2022-09-09T15:58:20;1.67;;;0.88;;
15480;SDS011;7842;50.904;6.670;2022-09-09T16:00:46;0.70;;;0.70;;
15480;SDS011;7842;50.904;6.670;2022-09-09T16:03:13;1.83;;;1.00;;
15480;SDS011;7842;50.904;6.670;2022-09-09T16:05:38;2.53;;;1.02;;
15480;SDS011;7842;50.904;6.670;2022-09-09T16:08:05;2.53;;;1.02;;
15480;SDS011;7842;50.904;6.670;2022-09-09T16:10:31;1.77;;;1.00;;
15480;SDS011;7842;50.904;6.670;2022-09-09T16:12:57;1.60;;;1.00;;
15480;SDS011;7842;50.904;6.670;2022-09-09T16:15:24;1.48;;;0.90;;
15480;SDS011;7842;50.904;6.670;2022-09-09T16:17:52;1.58;;;1.00;;
15480;SDS011;7842;50.904;6.670;2022-09-09T16:20:18;1.27;;;1.00;;
15480;SDS011;7842;50.904;6.670;2022-09-09T16:22:45;1.50;;;1.10;;
15480;SDS011;7842;50.904;6.670;2022-09-09T16:25:11;2.58;;;1.20;;
15480;SDS011;7842;50.904;6.670;2022-09-09T16:27:37;2.03;;;1.17;;
15480;SDS011;7842;50.904;6.670;2022-09-09T16:30:03;2.22;;;1.13;;
15480;SDS011;7842;50.904;6.670;2022-09-09T16:32:29;2.45;;;1.20;;
15480;SDS011;7842;50.904;6.670;2022-09-09T16:34:55;1.38;;;1.17;;
15480;SDS011;7842;50.904;6.670;2022-09-09T16:37:21;2.40;;;1.10;;
15480;SDS011;7842;50.904;6.670;2022-09-09T16:39:47;1.83;;;1.10;;
15480;SDS011;7842;50.904;6.670;2022-09-09T16:42:15;2.63;;;1.40;;
15480;SDS011;7842;50.904;6.670;2022-09-09T16:44:41;2.53;;;1.10;;
15480;SDS011;7842;50.904;6.670;2022-09-09T16:47:07;2.03;;;1.20;;
15480;SDS011;7842;50.904;6.670;2022-09-09T16:49:33;1.97;;;1.30;;
15480;SDS011;7842;50.904;6.670;2022-09-09T16:51:59;1.73;;;1.20;;
15480;SDS011;7842;50.904;6.670;2022-09-09T16:54:25;1.70;;;1.00;;
15480;SDS011;7842;50.904;6.670;2022-09-09T16:56:52;1.55;;;1.00;;
15480;SDS011;7842;50.904;6.670;2022-09-09T16:59:18;1.65;;;1.20;;
15480;SDS011;7842;50.904;6.670;2022-09-09T17:01:46;1.90;;;1.30;;
15480;SDS011;7842;50.904;6.670;2022-09-09T17:04:13;2.30;;;1.20;;
15480;SDS011;7842;50.904;6.670;2022-09-09T17:06:41;2.40;;;1.33;;